Terminal Aerodrome Forecast
Issued by NWS

Home | Current Version | Previous Version | Graphics & Text | Print | Product List | Glossary On
Versions: 1 2 3 4 5 6 7 8 9 10 11 12 13 14 15 16
000
FTUS43 KGRB 051016 AAA
TAFRHI
TAF AMD
KRHI 051016Z 0510/0606 34007KT 3SM BR FEW100 SCT200
      TEMPO 0510/0514 1SM BR
     FM051600 29006KT P6SM SCT100 SCT250
     FM060000 24005KT P6SM SCT250=

USA.gov is the U.S. government's official web portal to all federal, state and local government web resources and services.